createdAt,value
2022-11-15T00:00:02.701Z,18.05
2022-11-15T00:02:29.186Z,22.40
2022-11-15T00:04:55.696Z,19.65
2022-11-15T00:07:53.463Z,26.48
2022-11-15T00:10:10.163Z,24.00
2022-11-15T00:12:36.569Z,21.40
2022-11-15T00:15:03.299Z,21.48
2022-11-15T00:17:29.855Z,20.42
2022-11-15T00:19:56.690Z,19.65
2022-11-15T00:22:24.656Z,23.60
2022-11-15T00:24:51.066Z,18.33
2022-11-15T00:27:17.487Z,21.45
2022-11-15T00:29:43.903Z,20.25
2022-11-15T00:32:10.438Z,19.80
2022-11-15T00:34:37.069Z,18.23
2022-11-15T00:37:03.542Z,15.93
2022-11-15T00:39:31.272Z,16.63
2022-11-15T00:41:57.699Z,20.92
2022-11-15T00:44:24.111Z,17.67
2022-11-15T00:46:50.553Z,16.25
2022-11-15T00:49:17.117Z,18.27
2022-11-15T00:51:43.608Z,17.35
2022-11-15T00:54:10.097Z,19.73
2022-11-15T00:56:37.878Z,17.08
2022-11-15T00:59:04.263Z,16.30
2022-11-15T01:01:30.851Z,16.35
2022-11-15T01:04:01.314Z,21.13
2022-11-15T01:06:28.116Z,16.15
2022-11-15T01:08:54.518Z,16.67
2022-11-15T01:11:21.091Z,16.38
2022-11-15T01:13:48.814Z,16.80
2022-11-15T01:16:18.198Z,17.20
2022-11-15T01:18:45.403Z,27.30
2022-11-15T01:21:14.328Z,19.35
2022-11-15T01:23:41.091Z,18.77
2022-11-15T01:26:10.661Z,20.65
2022-11-15T01:28:38.715Z,17.58
2022-11-15T01:31:10.067Z,15.85
2022-11-15T01:33:36.654Z,18.50
2022-11-15T01:36:04.583Z,17.70
2022-11-15T01:38:31.076Z,16.83
2022-11-15T01:40:57.583Z,15.60
2022-11-15T01:43:27.306Z,25.73
2022-11-15T01:45:57.988Z,17.17
2022-11-15T01:48:32.143Z,20.85
2022-11-15T01:50:59.254Z,19.50
2022-11-15T01:53:27.127Z,17.55
2022-11-15T01:55:54.687Z,16.13
2022-11-15T01:58:21.294Z,16.40
2022-11-15T02:00:47.853Z,17.77
2022-11-15T02:03:14.566Z,16.92
2022-11-15T02:05:44.078Z,21.52
2022-11-15T02:08:11.648Z,17.05
2022-11-15T02:10:38.043Z,13.50
2022-11-15T02:13:04.584Z,15.57
2022-11-15T02:15:37.969Z,21.92
2022-11-15T02:18:17.200Z,14.68
2022-11-15T02:20:53.362Z,18.73
2022-11-15T02:24:04.444Z,16.13
2022-11-15T02:27:03.550Z,16.15
2022-11-15T02:29:48.197Z,15.93
2022-11-15T02:32:21.540Z,19.42
2022-11-15T02:34:55.623Z,14.90
2022-11-15T02:37:29.725Z,16.85
2022-11-15T02:40:02.985Z,15.60
2022-11-15T02:42:36.392Z,13.88
2022-11-15T02:45:06.635Z,18.77
2022-11-15T02:47:42.167Z,12.55
2022-11-15T02:50:12.211Z,15.88
2022-11-15T02:52:38.820Z,14.48
2022-11-15T02:55:06.015Z,14.65
2022-11-15T02:57:46.465Z,15.18
2022-11-15T03:00:15.546Z,14.05
2022-11-15T03:03:15.294Z,13.07
2022-11-15T03:05:47.707Z,15.18
2022-11-15T03:08:23.138Z,12.50
2022-11-15T03:11:01.523Z,13.65
2022-11-15T03:13:32.730Z,15.00
2022-11-15T03:16:05.297Z,13.80
2022-11-15T03:18:37.079Z,13.68
2022-11-15T03:21:07.143Z,12.70
2022-11-15T03:23:36.507Z,13.35
2022-11-15T03:26:07.995Z,14.32
2022-11-15T03:28:37.914Z,14.77
2022-11-15T03:31:06.067Z,14.45
2022-11-15T03:33:34.092Z,14.82
2022-11-15T03:36:00.909Z,16.10
2022-11-15T03:38:32.663Z,12.40
2022-11-15T03:41:01.391Z,13.60
2022-11-15T03:43:35.254Z,12.80
2022-11-15T03:46:04.505Z,12.55
2022-11-15T03:48:38.451Z,14.15
2022-11-15T03:51:05.662Z,13.77
2022-11-15T03:53:32.839Z,11.45
2022-11-15T03:55:59.560Z,15.32
2022-11-15T03:58:26.003Z,13.48
2022-11-15T04:00:52.477Z,11.13
2022-11-15T04:03:19.021Z,11.95
2022-11-15T04:05:46.779Z,11.57
2022-11-15T04:08:13.161Z,13.85
2022-11-15T04:10:39.962Z,11.73
2022-11-15T04:13:06.413Z,13.80
2022-11-15T04:15:33.054Z,11.52
2022-11-15T04:17:59.462Z,12.57
2022-11-15T04:20:29.493Z,12.02
2022-11-15T04:22:58.999Z,11.13
2022-11-15T04:25:29.693Z,13.63
2022-11-15T04:27:58.471Z,9.70
2022-11-15T04:30:24.893Z,9.68
2022-11-15T04:32:51.298Z,10.10
2022-11-15T04:35:17.768Z,12.40
2022-11-15T04:37:49.112Z,10.77
2022-11-15T04:40:17.426Z,12.65
2022-11-15T04:42:44.055Z,12.02
2022-11-15T04:45:11.057Z,10.27
2022-11-15T04:47:37.824Z,10.68
2022-11-15T04:50:05.135Z,8.07
2022-11-15T04:52:31.560Z,12.48
2022-11-15T04:54:58.001Z,8.15
2022-11-15T04:57:25.765Z,7.57
2022-11-15T04:59:52.165Z,11.88
2022-11-15T05:02:18.585Z,9.35
2022-11-15T05:04:45.079Z,8.38
2022-11-15T05:07:11.520Z,9.30
2022-11-15T05:09:37.931Z,7.20
2022-11-15T05:12:04.661Z,8.85
2022-11-15T05:14:32.417Z,8.57
2022-11-15T05:16:58.857Z,12.88
2022-11-15T05:19:25.295Z,10.27
2022-11-15T05:21:51.732Z,10.50
2022-11-15T05:24:18.379Z,10.27
2022-11-15T05:26:44.815Z,7.63
2022-11-15T05:29:11.221Z,9.68
2022-11-15T05:31:41.603Z,7.60
2022-11-15T05:34:08.147Z,8.38
2022-11-15T05:36:37.303Z,9.25
2022-11-15T05:39:05.441Z,7.18
2022-11-15T05:41:34.805Z,6.70
2022-11-15T05:44:04.129Z,7.15
2022-11-15T05:46:30.835Z,8.70
2022-11-15T05:48:59.063Z,6.10
2022-11-15T05:51:28.511Z,14.43
2022-11-15T05:53:57.570Z,8.57
2022-11-15T05:56:23.999Z,9.40
2022-11-15T05:58:51.403Z,7.95
2022-11-15T06:01:19.951Z,7.05
2022-11-15T06:03:46.409Z,8.20
2022-11-15T06:06:16.482Z,9.48
2022-11-15T06:08:43.073Z,9.40
2022-11-15T06:11:09.801Z,7.43
2022-11-15T06:13:36.234Z,8.52
2022-11-15T06:16:02.770Z,7.25
2022-11-15T06:18:29.347Z,8.07
2022-11-15T06:20:59.685Z,7.80
2022-11-15T06:23:27.457Z,7.75
2022-11-15T06:25:53.901Z,8.82
2022-11-15T06:28:20.339Z,14.93
2022-11-15T06:30:50.535Z,10.55
2022-11-15T06:33:19.608Z,12.77
2022-11-15T06:35:45.997Z,11.07
2022-11-15T06:38:12.473Z,9.05
2022-11-15T06:40:40.533Z,9.63
2022-11-15T06:43:07.639Z,7.75
2022-11-15T06:45:34.051Z,8.77
2022-11-15T06:48:00.536Z,9.57
2022-11-15T06:50:27.170Z,10.45
2022-11-15T06:52:53.743Z,13.60
2022-11-15T06:55:20.183Z,8.60
2022-11-15T06:57:52.624Z,7.30
2022-11-15T07:00:20.851Z,9.68
2022-11-15T07:02:47.647Z,11.45
2022-11-15T07:05:15.006Z,11.73
2022-11-15T07:07:41.593Z,10.57
2022-11-15T07:10:09.581Z,9.98
2022-11-15T07:12:36.175Z,22.35
2022-11-15T07:15:05.122Z,15.93
2022-11-15T07:17:31.590Z,8.02
2022-11-15T07:19:57.990Z,7.82
2022-11-15T07:22:24.469Z,9.75
2022-11-15T07:24:50.862Z,11.73
2022-11-15T07:27:17.434Z,8.60
2022-11-15T07:29:44.122Z,7.97
2022-11-15T07:32:11.868Z,7.35
2022-11-15T07:34:38.305Z,7.70
2022-11-15T07:37:04.950Z,7.05
2022-11-15T07:39:31.443Z,9.18
2022-11-15T07:41:57.839Z,7.93
2022-11-15T07:44:24.247Z,10.73
2022-11-15T07:46:50.851Z,12.77
2022-11-15T07:49:18.617Z,10.00
2022-11-15T07:51:44.997Z,8.98
2022-11-15T07:54:11.392Z,9.38
2022-11-15T07:56:37.774Z,14.68
2022-11-15T07:59:04.401Z,10.73
2022-11-15T08:01:30.936Z,7.20
2022-11-15T08:03:57.427Z,8.15
2022-11-15T08:06:25.164Z,8.00
2022-11-15T08:08:51.560Z,10.45
2022-11-15T08:11:17.951Z,11.57
2022-11-15T08:13:44.383Z,10.45
2022-11-15T08:16:10.847Z,8.70
2022-11-15T08:18:37.241Z,8.57
2022-11-15T08:21:04.751Z,8.18
2022-11-15T08:23:32.826Z,8.07
2022-11-15T08:26:03.339Z,8.02
2022-11-15T08:28:30.164Z,8.43
2022-11-15T08:30:56.618Z,8.73
2022-11-15T08:33:23.183Z,8.98
2022-11-15T08:35:49.697Z,8.30
2022-11-15T08:38:16.169Z,7.95
2022-11-15T08:40:43.961Z,10.48
2022-11-15T08:43:10.405Z,5.80
2022-11-15T08:45:36.795Z,8.18
2022-11-15T08:48:04.263Z,5.72
2022-11-15T08:50:30.966Z,6.32
2022-11-15T08:52:57.619Z,7.18
2022-11-15T08:55:24.901Z,6.82
2022-11-15T08:57:52.872Z,8.55
2022-11-15T09:00:20.426Z,11.15
2022-11-15T09:02:46.860Z,8.80
2022-11-15T09:05:13.308Z,6.65
2022-11-15T09:07:39.794Z,8.60
2022-11-15T09:10:06.909Z,6.88
2022-11-15T09:12:33.367Z,17.23
2022-11-15T09:15:01.122Z,6.93
2022-11-15T09:17:27.580Z,6.88
2022-11-15T09:19:54.009Z,7.80
2022-11-15T09:22:20.537Z,8.40
2022-11-15T09:24:46.944Z,5.70
2022-11-15T09:27:13.487Z,9.32
2022-11-15T09:29:39.999Z,5.10
2022-11-15T09:32:07.831Z,7.43
2022-11-15T09:34:34.269Z,8.13
2022-11-15T09:37:00.855Z,8.40
2022-11-15T09:39:27.254Z,6.07
2022-11-15T09:42:23.526Z,5.78
2022-11-15T09:45:00.724Z,5.10
2022-11-15T09:47:47.162Z,6.70
2022-11-15T09:50:16.614Z,6.55
2022-11-15T09:52:45.722Z,5.68
2022-11-15T09:55:14.866Z,8.95
2022-11-15T09:57:50.484Z,8.15
2022-11-15T10:03:14.591Z,4.95
2022-11-15T10:05:43.901Z,4.80
2022-11-15T10:08:26.198Z,4.85
2022-11-15T10:11:22.709Z,5.25
2022-11-15T10:13:46.888Z,8.65
2022-11-15T10:16:25.991Z,7.22
2022-11-15T10:19:00.296Z,7.65
2022-11-15T10:21:34.706Z,6.68
2022-11-15T10:24:01.989Z,4.97
2022-11-15T10:26:28.483Z,4.75
2022-11-15T10:28:55.053Z,7.05
2022-11-15T10:31:24.036Z,5.70
2022-11-15T10:33:50.836Z,5.05
2022-11-15T10:36:22.259Z,7.18
2022-11-15T10:38:57.693Z,4.82
2022-11-15T10:41:41.649Z,7.63
2022-11-15T10:47:39.528Z,8.30
2022-11-15T10:50:27.036Z,6.88
2022-11-15T10:52:55.269Z,8.23
2022-11-15T10:55:26.702Z,5.88
2022-11-15T10:57:54.837Z,6.57
2022-11-15T11:00:31.601Z,4.80
2022-11-15T11:03:00.095Z,4.88
2022-11-15T11:05:28.816Z,4.53
2022-11-15T11:08:00.629Z,4.00
2022-11-15T11:10:50.386Z,5.97
2022-11-15T11:13:14.965Z,5.75
2022-11-15T11:15:45.231Z,8.02
2022-11-15T11:18:22.845Z,4.90
2022-11-15T11:20:53.894Z,6.55
2022-11-15T11:23:37.118Z,5.60
2022-11-15T11:26:19.287Z,6.88
2022-11-15T11:28:55.053Z,5.47
2022-11-15T11:31:32.090Z,6.05
2022-11-15T11:34:13.912Z,5.72
2022-11-15T11:36:46.387Z,4.10
2022-11-15T11:39:25.188Z,7.05
2022-11-15T11:42:02.308Z,4.43
2022-11-15T11:44:37.723Z,3.80
2022-11-15T11:47:10.238Z,4.68
2022-11-15T11:49:44.642Z,4.28
2022-11-15T11:52:15.763Z,4.95
2022-11-15T11:54:53.548Z,5.22
2022-11-15T11:57:29.508Z,4.47
2022-11-15T12:00:01.952Z,4.25
2022-11-15T12:02:32.595Z,3.95
2022-11-15T12:05:08.623Z,6.18
2022-11-15T12:07:36.640Z,4.15
2022-11-15T12:10:13.904Z,5.53
2022-11-15T12:12:48.144Z,4.82
2022-11-15T12:15:18.058Z,5.10
2022-11-15T12:17:47.407Z,5.47
2022-11-15T12:20:17.405Z,5.13
2022-11-15T12:22:47.538Z,5.55
2022-11-15T12:25:21.884Z,7.53
2022-11-15T12:27:53.697Z,7.07
2022-11-15T12:30:23.205Z,4.78
2022-11-15T12:32:55.319Z,4.65
2022-11-15T12:35:26.137Z,4.43
2022-11-15T12:37:53.439Z,6.93
2022-11-15T12:40:33.848Z,3.85
2022-11-15T12:43:25.862Z,6.03
2022-11-15T12:45:52.293Z,4.90
2022-11-15T12:48:58.358Z,5.03
2022-11-15T12:52:03.367Z,7.18
2022-11-15T12:55:00.810Z,5.13
2022-11-15T12:57:37.407Z,4.60
2022-11-15T13:00:45.090Z,3.75
2022-11-15T13:03:32.840Z,5.30
2022-11-15T13:06:09.692Z,7.40
2022-11-15T13:08:50.759Z,5.20
2022-11-15T13:11:54.176Z,7.47
2022-11-15T13:14:44.851Z,4.38
2022-11-15T13:17:30.044Z,5.40
2022-11-15T13:20:01.619Z,6.25
2022-11-15T13:22:28.586Z,4.03
2022-11-15T13:24:55.474Z,5.72
2022-11-15T13:27:22.326Z,5.57
2022-11-15T13:29:50.158Z,5.78
2022-11-15T13:32:17.521Z,3.88
2022-11-15T13:34:51.717Z,5.57
2022-11-15T13:37:31.290Z,5.60
2022-11-15T13:40:16.852Z,8.20
2022-11-15T13:42:45.848Z,5.03
2022-11-15T13:45:17.788Z,4.65
2022-11-15T13:47:44.408Z,6.15
2022-11-15T13:50:12.493Z,4.68
2022-11-15T13:52:41.560Z,9.90
2022-11-15T13:55:14.100Z,4.95
2022-11-15T13:57:44.244Z,4.80
2022-11-15T14:00:30.431Z,4.60
2022-11-15T14:03:05.678Z,4.57
2022-11-15T14:05:32.196Z,5.68
2022-11-15T14:08:00.384Z,4.53
2022-11-15T14:10:30.205Z,3.63
2022-11-15T14:12:57.590Z,3.95
2022-11-15T14:15:29.828Z,4.22
2022-11-15T14:17:56.298Z,6.18
2022-11-15T14:20:31.851Z,4.47
2022-11-15T14:23:00.384Z,5.00
2022-11-15T14:25:28.060Z,5.32
2022-11-15T14:28:12.840Z,6.47
2022-11-15T14:30:41.841Z,6.05
2022-11-15T14:33:23.932Z,3.53
2022-11-15T14:35:50.879Z,6.25
2022-11-15T14:38:17.391Z,4.15
2022-11-15T14:40:44.206Z,4.68
2022-11-15T14:43:12.341Z,4.72
2022-11-15T14:45:40.865Z,4.63
2022-11-15T14:48:08.113Z,4.88
2022-11-15T14:50:35.410Z,6.45
2022-11-15T14:53:02.007Z,3.63
2022-11-15T14:55:30.183Z,4.55
2022-11-15T14:57:56.755Z,3.42
2022-11-15T15:00:23.670Z,4.97
2022-11-15T15:02:54.057Z,3.72
2022-11-15T15:05:22.503Z,5.40
2022-11-15T15:07:49.445Z,4.43
2022-11-15T15:10:38.900Z,4.75
2022-11-15T15:13:05.095Z,6.20
2022-11-15T15:15:34.874Z,5.85
2022-11-15T15:18:02.950Z,6.53
2022-11-15T15:20:29.884Z,7.28
2022-11-15T15:22:56.532Z,4.72
2022-11-15T15:25:26.800Z,6.07
2022-11-15T15:27:53.560Z,7.95
2022-11-15T15:30:20.086Z,5.68
2022-11-15T15:32:46.552Z,5.63
2022-11-15T15:35:15.782Z,5.18
2022-11-15T15:37:42.838Z,4.45
2022-11-15T15:40:14.228Z,5.53
2022-11-15T15:42:40.713Z,11.50
2022-11-15T15:45:08.981Z,6.30
2022-11-15T15:47:35.634Z,5.90
2022-11-15T15:50:02.244Z,3.45
2022-11-15T15:52:30.145Z,9.38
2022-11-15T15:54:56.614Z,5.20
2022-11-15T15:57:23.026Z,4.68
2022-11-15T15:59:49.615Z,5.15
2022-11-15T16:02:16.022Z,7.22
2022-11-15T16:04:42.436Z,4.07
2022-11-15T16:07:17.324Z,4.72
2022-11-15T16:09:45.320Z,3.45
2022-11-15T16:12:11.739Z,5.97
2022-11-15T16:14:38.243Z,4.70
2022-11-15T16:17:04.848Z,4.93
2022-11-15T16:19:31.259Z,4.60
2022-11-15T16:21:57.855Z,5.45
2022-11-15T16:24:24.275Z,7.68
2022-11-15T16:26:52.678Z,6.13
2022-11-15T16:29:19.159Z,5.88
2022-11-15T16:31:45.543Z,5.35
2022-11-15T16:34:11.947Z,5.63
2022-11-15T16:36:38.565Z,6.30
2022-11-15T16:39:05.010Z,9.02
2022-11-15T16:41:32.144Z,8.90
2022-11-15T16:43:59.942Z,10.02
2022-11-15T16:46:28.492Z,7.07
2022-11-15T16:48:55.118Z,8.32
2022-11-15T16:51:22.054Z,10.55
2022-11-15T16:53:48.876Z,10.73
2022-11-15T16:56:20.731Z,12.20
2022-11-15T16:58:47.312Z,11.57
2022-11-15T17:01:19.400Z,9.75
2022-11-15T17:03:46.126Z,10.40
2022-11-15T17:06:13.859Z,10.52
2022-11-15T17:08:40.269Z,10.98
2022-11-15T17:11:07.280Z,10.98
2022-11-15T17:13:33.936Z,9.57
2022-11-15T17:16:04.859Z,12.48
2022-11-15T17:18:32.985Z,10.60
2022-11-15T17:21:04.306Z,12.70
2022-11-15T17:23:30.911Z,12.30
2022-11-15T17:26:12.073Z,12.73
2022-11-15T17:28:45.503Z,14.43
2022-11-15T17:31:13.538Z,10.40
2022-11-15T17:33:41.326Z,8.93
2022-11-15T17:36:11.616Z,15.35
2022-11-15T17:38:38.103Z,11.80
2022-11-15T17:41:06.550Z,11.65
2022-11-15T17:43:34.110Z,10.98
2022-11-15T17:46:04.738Z,15.50
2022-11-15T17:48:31.714Z,11.07
2022-11-15T17:51:01.386Z,12.55
2022-11-15T17:53:31.775Z,11.27
2022-11-15T17:56:02.061Z,11.38
2022-11-15T17:58:28.504Z,10.82
2022-11-15T18:00:55.109Z,14.27
2022-11-15T18:03:21.743Z,9.98
2022-11-15T18:05:48.161Z,12.30
2022-11-15T18:08:15.935Z,11.00
2022-11-15T18:10:42.391Z,12.35
2022-11-15T18:13:08.765Z,16.15
2022-11-15T18:15:35.187Z,12.40
2022-11-15T18:18:01.863Z,13.07
2022-11-15T18:20:29.148Z,14.52
2022-11-15T18:22:55.693Z,15.20
2022-11-15T18:25:23.486Z,15.05
2022-11-15T18:27:50.822Z,11.27
2022-11-15T18:30:17.357Z,13.32
2022-11-15T18:32:43.946Z,12.02
2022-11-15T18:35:10.353Z,12.52
2022-11-15T18:37:36.771Z,14.10
2022-11-15T18:40:03.858Z,10.38
2022-11-15T18:42:31.585Z,12.02
2022-11-15T18:44:58.034Z,14.23
2022-11-15T18:47:24.438Z,11.73
2022-11-15T18:49:50.882Z,11.23
2022-11-15T18:52:17.338Z,9.90
2022-11-15T18:54:43.900Z,10.02
2022-11-15T18:57:10.277Z,13.02
2022-11-15T18:59:38.013Z,11.38
2022-11-15T19:02:04.436Z,12.10
2022-11-15T19:04:30.822Z,10.88
2022-11-15T19:06:57.293Z,14.82
2022-11-15T19:09:23.905Z,11.98
2022-11-15T19:11:50.349Z,15.30
2022-11-15T19:14:17.784Z,14.27
2022-11-15T19:16:46.991Z,10.07
2022-11-15T19:19:15.889Z,11.60
2022-11-15T19:21:42.477Z,9.05
2022-11-15T19:24:09.331Z,11.23
2022-11-15T19:26:35.789Z,11.13
2022-11-15T19:29:02.499Z,11.32
2022-11-15T19:31:31.010Z,10.13
2022-11-15T19:34:00.344Z,10.65
2022-11-15T19:36:28.827Z,11.98
2022-11-15T19:38:56.053Z,8.30
2022-11-15T19:41:24.695Z,11.13
2022-11-15T19:43:52.163Z,11.05
2022-11-15T19:46:19.838Z,10.35
2022-11-15T19:48:47.090Z,10.13
2022-11-15T19:51:17.099Z,10.10
2022-11-15T19:53:43.612Z,10.40
2022-11-15T19:56:11.789Z,9.63
2022-11-15T19:58:38.968Z,10.52
2022-11-15T20:01:06.888Z,7.80
2022-11-15T20:03:36.337Z,8.73
2022-11-15T20:06:04.157Z,7.82
2022-11-15T20:08:33.032Z,8.93
2022-11-15T20:11:00.548Z,12.23
2022-11-15T20:13:27.771Z,10.25
2022-11-15T20:15:54.405Z,8.70
2022-11-15T20:18:21.861Z,8.93
2022-11-15T20:20:48.295Z,7.90
2022-11-15T20:23:14.719Z,8.30
2022-11-15T20:25:45.168Z,14.68
2022-11-15T20:28:15.908Z,9.23
2022-11-15T20:30:43.602Z,9.55
2022-11-15T20:33:10.002Z,8.63
2022-11-15T20:35:36.727Z,11.07
2022-11-15T20:38:03.166Z,9.20
2022-11-15T20:40:29.587Z,8.18
2022-11-15T20:42:57.425Z,9.00
2022-11-15T20:45:23.843Z,10.80
2022-11-15T20:47:50.604Z,9.02
2022-11-15T20:50:41.173Z,8.73
2022-11-15T20:53:03.873Z,8.40
2022-11-15T20:55:30.349Z,6.88
2022-11-15T20:57:58.139Z,6.38
2022-11-15T21:00:24.595Z,6.40
2022-11-15T21:02:51.730Z,9.77
2022-11-15T21:05:18.645Z,10.02
2022-11-15T21:07:45.250Z,9.55
2022-11-15T21:10:11.669Z,7.53
2022-11-15T21:12:38.106Z,7.53
2022-11-15T21:15:07.391Z,8.93
2022-11-15T21:17:34.086Z,7.30
2022-11-15T21:20:00.597Z,13.60
2022-11-15T21:22:27.221Z,6.90
2022-11-15T21:24:53.639Z,5.97
2022-11-15T21:27:20.062Z,7.60
2022-11-15T21:29:46.442Z,8.40
2022-11-15T21:32:14.618Z,5.55
2022-11-15T21:34:41.053Z,6.20
2022-11-15T21:37:07.822Z,7.15
2022-11-15T21:39:34.245Z,5.55
2022-11-15T21:42:00.696Z,5.72
2022-11-15T21:44:27.087Z,7.05
2022-11-15T21:46:53.523Z,6.05
2022-11-15T21:49:21.281Z,9.25
2022-11-15T21:51:47.979Z,5.28
2022-11-15T21:54:14.488Z,9.80
2022-11-15T21:56:40.994Z,8.18
2022-11-15T21:59:07.369Z,7.63
2022-11-15T22:01:33.912Z,6.75
2022-11-15T22:04:00.407Z,7.88
2022-11-15T22:06:28.335Z,7.47
2022-11-15T22:08:54.891Z,5.63
2022-11-15T22:11:21.308Z,8.48
2022-11-15T22:13:47.758Z,9.35
2022-11-15T22:16:14.186Z,7.78
2022-11-15T22:18:40.752Z,6.97
2022-11-15T22:21:10.369Z,7.28
2022-11-15T22:23:38.681Z,8.05
2022-11-15T22:26:06.301Z,7.78
2022-11-15T22:28:33.116Z,7.43
2022-11-15T22:31:00.435Z,6.88
2022-11-15T22:33:28.884Z,9.45
2022-11-15T22:35:56.266Z,6.53
2022-11-15T22:38:23.114Z,6.68
2022-11-15T22:40:51.496Z,6.35
2022-11-15T22:43:20.084Z,10.43
2022-11-15T22:45:47.601Z,10.48
2022-11-15T22:48:14.070Z,14.98
2022-11-15T22:50:40.631Z,6.97
2022-11-15T22:53:07.091Z,13.70
2022-11-15T22:55:33.574Z,10.55
2022-11-15T22:58:01.354Z,8.38
2022-11-15T23:00:28.079Z,7.80
2022-11-15T23:02:54.594Z,8.30
2022-11-15T23:05:21.223Z,7.80
2022-11-15T23:07:47.805Z,7.30
2022-11-15T23:10:14.227Z,9.07
2022-11-15T23:12:40.715Z,7.68
2022-11-15T23:15:09.899Z,9.20
2022-11-15T23:17:36.339Z,8.60
2022-11-15T23:20:16.669Z,9.80
2022-11-15T23:22:49.365Z,9.48
2022-11-15T23:25:16.079Z,7.10
2022-11-15T23:27:42.507Z,11.40
2022-11-15T23:30:11.430Z,9.43
2022-11-15T23:32:37.831Z,11.20
2022-11-15T23:35:05.082Z,7.68
2022-11-15T23:37:32.447Z,7.80
2022-11-15T23:39:58.846Z,9.25
2022-11-15T23:42:25.273Z,10.63
2022-11-15T23:44:51.779Z,12.07
2022-11-15T23:47:19.984Z,10.38
2022-11-15T23:49:46.687Z,9.10
2022-11-15T23:52:13.190Z,12.10
2022-11-15T23:54:39.619Z,9.63
2022-11-15T23:57:06.081Z,14.05
2022-11-15T23:59:32.521Z,7.43
